Time;durP1;ratioP1;P1;durP2;ratioP2;P2;SDS_P1;SDS_P2;PMS_P1;PMS_P2;Temp;Humidity;BMP_temperature;BMP_pressure;BME280_temperature;BME280_humidity;BME280_pressure;Samples;Min_cycle;Max_cycle;Signal;HPM_P1;HPM_P2
2023/03/11 00:00:39;;;;;;;22.17;6.33;;;;;;;-143.84;86.42;44186.59;5088443;28;20480;-73
2023/03/11 00:03:09;;;;;;;13.07;5.70;;;;;;;-143.84;86.33;44188.50;5087725;28;20460;-72
2023/03/11 00:05:38;;;;;;;37.73;6.37;;;;;;;-143.84;86.32;44215.16;5087952;28;21008;-72
2023/03/11 00:08:07;;;;;;;17.43;5.40;;;;;;;-143.84;86.60;44131.38;5087749;28;20443;-73
2023/03/11 00:10:36;;;;;;;12.50;5.87;;;;;;;-143.84;86.52;44135.19;5087782;28;21219;-73
2023/03/11 00:13:04;;;;;;;17.50;5.53;;;;;;;-143.84;86.44;44220.84;5088416;28;20437;-73
2023/03/11 00:15:33;;;;;;;15.53;5.97;;;;;;;-143.84;86.19;44190.41;5088496;28;20443;-73
2023/03/11 00:18:01;;;;;;;24.50;6.90;;;;;;;-143.84;86.20;44295.09;5087513;28;20443;-73
2023/03/11 00:20:30;;;;;;;13.93;4.90;;;;;;;-143.84;86.33;44217.06;5087671;28;20531;-73
2023/03/11 00:22:57;;;;;;;23.03;5.63;;;;;;;-143.84;87.25;44020.97;5088499;28;20427;-72
2023/03/11 00:25:28;;;;;;;15.27;5.60;;;;;;;-143.84;88.80;43794.47;5088798;28;20969;-72
2023/03/11 00:27:55;;;;;;;9.83;4.30;;;;;;;-143.84;89.52;43775.41;5088587;28;20496;-73
2023/03/11 00:30:23;;;;;;;13.90;4.63;;;;;;;-143.84;89.74;43746.88;5088364;28;20505;-72
2023/03/11 00:32:54;;;;;;;17.43;5.13;;;;;;;-143.84;89.64;43750.69;5088605;28;20975;-73
2023/03/11 00:35:24;;;;;;;15.60;5.23;;;;;;;-143.84;89.83;43765.91;5088594;28;20445;-73
2023/03/11 00:37:54;;;;;;;18.00;5.80;;;;;;;-143.84;89.57;43739.25;5088641;28;20943;-73
2023/03/11 00:40:23;;;;;;;13.77;5.30;;;;;;;-143.84;89.60;43744.97;5088811;28;21042;-73
2023/03/11 00:42:50;;;;;;;11.90;5.03;;;;;;;-143.84;88.81;43746.88;5088503;28;21017;-73
2023/03/11 00:45:17;;;;;;;12.93;4.50;;;;;;;-143.84;87.96;43861.06;5089419;28;20451;-73
2023/03/11 00:47:44;;;;;;;12.23;5.10;;;;;;;-143.84;87.32;43952.44;5091097;28;20443;-73
2023/03/11 00:50:16;;;;;;;31.97;5.80;;;;;;;-143.84;86.77;44095.22;5091650;28;20938;-73
2023/03/11 00:52:44;;;;;;;16.50;4.90;;;;;;;-143.84;86.92;44062.84;5091027;28;20447;-73
2023/03/11 00:55:14;;;;;;;14.23;4.90;;;;;;;-143.84;87.33;43975.28;5091047;28;20441;-73
2023/03/11 00:57:42;;;;;;;20.97;5.17;;;;;;;-143.84;87.33;43984.81;5091796;28;20442;-73
2023/03/11 01:00:13;;;;;;;19.53;5.50;;;;;;;-143.84;87.53;43933.41;5091362;28;20815;-73
2023/03/11 01:02:40;;;;;;;19.97;5.10;;;;;;;-143.84;86.80;44070.47;5091220;28;20487;-73
2023/03/11 01:05:08;;;;;;;21.50;5.87;;;;;;;-143.84;86.42;44194.22;5091767;28;21057;-73
2023/03/11 01:07:36;;;;;;;24.03;5.50;;;;;;;-143.84;86.15;44287.50;5092047;28;20428;-73
2023/03/11 01:10:05;;;;;;;24.40;5.97;;;;;;;-143.84;85.95;44291.28;5092367;28;20547;-73
2023/03/11 01:12:33;;;;;;;16.63;5.40;;;;;;;-143.84;85.66;44415.03;5091195;28;20449;-73
2023/03/11 01:15:01;;;;;;;17.80;4.60;;;;;;;-143.84;85.36;44468.34;5091394;28;20436;-73
2023/03/11 01:17:28;;;;;;;19.33;4.90;;;;;;;-143.84;85.19;44542.59;5091827;28;20433;-73
2023/03/11 01:19:55;;;;;;;17.17;5.23;;;;;;;-143.84;85.43;44548.31;5091710;28;20444;-73
2023/03/11 01:22:23;;;;;;;25.60;6.17;;;;;;;-143.84;85.08;44588.28;5091408;28;20483;-73
2023/03/11 01:24:51;;;;;;;27.13;6.50;;;;;;;-143.84;85.15;44561.63;5091643;28;20953;-73
2023/03/11 01:27:18;;;;;;;26.60;5.40;;;;;;;-143.84;85.18;44569.25;5091632;28;20847;-73
2023/03/11 01:29:45;;;;;;;23.03;5.80;;;;;;;-143.84;85.21;44544.50;5091511;28;20477;-73
2023/03/11 01:32:13;;;;;;;23.77;5.30;;;;;;;-143.84;84.60;44618.75;5091574;28;20432;-73
2023/03/11 01:34:40;;;;;;;15.13;5.80;;;;;;;-143.84;84.64;44664.44;5090756;28;20442;-73
2023/03/11 01:37:07;;;;;;;26.30;6.13;;;;;;;-143.84;84.42;44691.09;5091124;28;20551;-73
2023/03/11 01:39:34;;;;;;;26.13;5.90;;;;;;;-143.84;84.54;44647.31;5090593;28;20446;-72
2023/03/11 01:42:03;;;;;;;20.63;5.80;;;;;;;-143.84;84.75;44654.94;5090217;28;20486;-72
2023/03/11 01:44:32;;;;;;;22.17;6.07;;;;;;;-143.84;84.61;44656.84;5090825;28;20436;-72
2023/03/11 01:47:33;;;;;;;28.50;7.50;;;;;;;-143.84;84.20;44729.19;5090835;28;20458;-72
2023/03/11 01:50:01;;;;;;;19.80;4.87;;;;;;;-143.84;84.13;44744.41;5090875;28;20972;-73
2023/03/11 01:52:28;;;;;;;18.07;5.07;;;;;;;-143.84;83.98;44723.47;5090747;28;20449;-73
2023/03/11 01:54:56;;;;;;;14.13;4.43;;;;;;;-143.84;84.03;44748.22;5090913;28;20432;-72
2023/03/11 01:57:25;;;;;;;21.20;5.53;;;;;;;-143.84;84.30;44691.09;5090664;28;20489;-72
2023/03/11 01:59:56;;;;;;;20.30;5.30;;;;;;;-143.84;84.17;44723.47;5090647;28;20450;-72
2023/03/11 02:02:28;;;;;;;18.30;5.93;;;;;;;-143.84;84.90;44632.09;5090689;28;20480;-72
2023/03/11 02:04:57;;;;;;;21.10;6.40;;;;;;;-143.84;85.35;44475.97;5090824;28;20496;-72
2023/03/11 02:07:24;;;;;;;25.43;5.87;;;;;;;-143.84;85.91;44367.44;5089878;28;21038;-73
2023/03/11 02:09:51;;;;;;;25.13;5.40;;;;;;;-143.84;86.02;44277.97;5090275;28;20435;-72
2023/03/11 02:12:18;;;;;;;11.10;4.77;;;;;;;-143.84;86.26;44276.06;5090255;28;20445;-72
2023/03/11 02:14:50;;;;;;;16.23;5.00;;;;;;;-143.84;86.06;44316.03;5090244;28;20439;-72
2023/03/11 02:17:17;;;;;;;18.43;5.97;;;;;;;-143.84;85.61;44405.53;5090318;28;21028;-73
2023/03/11 02:19:59;;;;;;;20.03;5.40;;;;;;;-143.84;85.93;44373.16;5090541;28;20505;-73
2023/03/11 02:22:28;;;;;;;17.67;5.47;;;;;;;-143.84;85.57;44405.53;5090384;28;20490;-73
2023/03/11 02:25:03;;;;;;;18.63;4.70;;;;;;;-143.84;85.79;44356.03;5090577;28;20547;-73
2023/03/11 02:27:36;;;;;;;15.77;5.87;;;;;;;-143.84;85.88;44378.88;5090259;28;20441;-73
2023/03/11 02:30:04;;;;;;;17.17;6.60;;;;;;;-143.84;85.63;44428.38;5089832;28;20454;-73
2023/03/11 02:32:31;;;;;;;15.90;6.30;;;;;;;-143.84;85.53;44477.88;5090193;28;21019;-73
2023/03/11 02:34:58;;;;;;;19.60;5.53;;;;;;;-143.84;85.94;44336.97;5089208;28;20945;-73
2023/03/11 02:37:25;;;;;;;20.00;5.20;;;;;;;-143.84;86.36;44255.13;5089676;28;20484;-73
2023/03/11 02:39:55;;;;;;;24.23;5.80;;;;;;;-143.84;86.83;44129.47;5089871;28;20443;-73
2023/03/11 02:42:26;;;;;;;22.27;5.87;;;;;;;-143.84;87.30;44066.66;5089935;28;20484;-75
2023/03/11 02:45:00;;;;;;;15.30;5.33;;;;;;;-143.84;87.42;44001.94;5091478;28;20484;-76
2023/03/11 02:47:27;;;;;;;13.40;5.43;;;;;;;-143.84;87.65;43979.09;5091463;28;20480;-75
2023/03/11 02:49:56;;;;;;;15.77;6.07;;;;;;;-143.84;87.59;43963.88;5090604;28;20492;-73
2023/03/11 02:52:25;;;;;;;27.77;6.30;;;;;;;-143.84;87.90;43901.06;5090127;28;20901;-73
2023/03/11 02:54:52;;;;;;;20.07;5.50;;;;;;;-143.84;88.26;43901.06;5089749;28;20838;-73
2023/03/11 02:57:19;;;;;;;14.67;5.40;;;;;;;-143.84;88.23;43876.31;5089516;28;20442;-73
2023/03/11 02:59:46;;;;;;;17.67;4.90;;;;;;;-143.84;88.76;43823.00;5089772;28;20431;-73
2023/03/11 03:02:14;;;;;;;16.60;6.23;;;;;;;-143.84;89.13;43809.69;5088550;28;20480;-73
2023/03/11 03:04:42;;;;;;;9.07;4.97;;;;;;;-143.84;88.89;43811.59;5089056;28;20446;-73
2023/03/11 03:07:09;;;;;;;27.27;5.70;;;;;;;-143.84;89.24;43781.13;5089186;28;20497;-73
2023/03/11 03:09:37;;;;;;;12.63;4.83;;;;;;;-143.84;89.27;43788.75;5089325;28;20438;-73
2023/03/11 03:12:05;;;;;;;16.20;5.90;;;;;;;-143.84;88.93;43843.94;5089305;28;20432;-73
2023/03/11 03:14:34;;;;;;;17.60;4.67;;;;;;;-143.84;88.50;43823.00;5089714;28;20439;-73
2023/03/11 03:17:01;;;;;;;9.33;5.10;;;;;;;-143.84;88.45;43857.28;5089334;28;21031;-73
2023/03/11 03:19:29;;;;;;;14.30;5.17;;;;;;;-143.84;88.34;43887.72;5089193;28;20454;-73
2023/03/11 03:21:56;;;;;;;15.27;5.37;;;;;;;-143.84;88.20;43901.06;5089258;28;20548;-73
2023/03/11 03:24:23;;;;;;;17.17;5.73;;;;;;;-143.84;87.65;43967.69;5089246;28;20504;-73
2023/03/11 03:26:51;;;;;;;13.03;5.37;;;;;;;-143.84;87.97;43948.63;5089145;28;20941;-73
2023/03/11 03:29:18;;;;;;;15.73;5.50;;;;;;;-143.84;87.67;43971.47;5087209;28;20456;-73
2023/03/11 03:31:46;;;;;;;19.23;6.17;;;;;;;-143.84;87.53;43988.63;5088597;28;20469;-73
2023/03/11 03:34:13;;;;;;;17.47;6.10;;;;;;;-143.84;87.34;44040.00;5089117;28;20889;-73
2023/03/11 03:36:41;;;;;;;15.53;5.83;;;;;;;-143.84;87.41;44055.25;5088283;28;20567;-73
2023/03/11 03:39:09;;;;;;;14.30;5.20;;;;;;;-143.84;87.31;44059.03;5089078;28;20452;-73
2023/03/11 03:41:36;;;;;;;15.80;5.40;;;;;;;-143.84;87.15;44047.63;5088988;28;20998;-73
2023/03/11 03:44:04;;;;;;;17.93;5.07;;;;;;;-143.84;87.16;44102.84;5089118;28;20895;-73
2023/03/11 03:46:32;;;;;;;17.80;5.20;;;;;;;-143.84;86.99;44150.41;5089352;28;20432;-73
2023/03/11 03:48:59;;;;;;;17.57;4.83;;;;;;;-143.84;86.85;44139.00;5089118;28;20436;-73
2023/03/11 03:51:26;;;;;;;16.53;5.10;;;;;;;-143.84;87.22;44106.63;5089349;28;21171;-73
2023/03/11 03:53:55;;;;;;;12.23;6.20;;;;;;;-143.84;87.16;44097.13;5089059;28;20434;-73
2023/03/11 03:56:22;;;;;;;22.10;6.13;;;;;;;-143.84;87.43;44047.63;5087842;28;20446;-73
2023/03/11 03:58:49;;;;;;;16.77;6.40;;;;;;;-143.84;87.59;44034.31;5088274;28;20444;-73
2023/03/11 04:01:16;;;;;;;23.70;6.13;;;;;;;-143.84;87.28;44038.09;5088752;28;20444;-73
2023/03/11 04:03:43;;;;;;;15.83;6.27;;;;;;;-143.84;87.44;44053.34;5089031;28;20441;-74
2023/03/11 04:06:15;;;;;;;18.53;7.93;;;;;;;-143.84;87.04;44110.44;5088800;28;20447;-73
2023/03/11 04:08:42;;;;;;;19.53;7.93;;;;;;;-143.84;87.05;44087.59;5088857;28;20440;-73
2023/03/11 04:11:11;;;;;;;19.33;7.43;;;;;;;-143.84;87.09;44114.25;5088843;28;20464;-73
2023/03/11 04:13:39;;;;;;;21.23;6.20;;;;;;;-143.84;87.00;44123.78;5088803;28;20531;-73
2023/03/11 04:16:07;;;;;;;13.50;5.93;;;;;;;-143.84;86.90;44144.72;5088939;28;20457;-73
2023/03/11 04:18:35;;;;;;;14.13;4.93;;;;;;;-143.84;86.69;44230.38;5088696;28;20439;-73
2023/03/11 04:21:05;;;;;;;10.27;4.70;;;;;;;-143.84;86.75;44264.66;5091904;28;20494;-73
2023/03/11 04:23:33;;;;;;;17.70;5.53;;;;;;;-143.84;86.71;44230.38;5091734;28;20483;-73
2023/03/11 04:26:00;;;;;;;17.60;6.43;;;;;;;-143.84;87.28;44129.47;5091726;28;20489;-73
2023/03/11 04:28:29;;;;;;;13.70;6.40;;;;;;;-143.84;87.38;44076.19;5092464;28;20447;-73
2023/03/11 04:30:56;;;;;;;19.70;6.63;;;;;;;-143.84;87.43;44059.03;5092598;28;20516;-73
2023/03/11 04:33:23;;;;;;;17.87;6.70;;;;;;;-143.84;86.96;44137.09;5092125;28;20511;-73
2023/03/11 04:35:51;;;;;;;18.07;5.70;;;;;;;-143.84;87.01;44142.81;5092399;28;20859;-73
2023/03/11 04:38:18;;;;;;;13.43;6.03;;;;;;;-143.84;87.14;44091.41;5092050;28;21321;-73
2023/03/11 04:40:45;;;;;;;20.30;6.77;;;;;;;-143.84;87.71;43998.13;5092245;28;20455;-73
2023/03/11 04:43:12;;;;;;;19.30;7.13;;;;;;;-143.84;88.17;43906.75;5092080;28;20475;-74
2023/03/11 04:45:42;;;;;;;9.50;5.60;;;;;;;-143.84;88.93;43823.00;5092127;28;20444;-73
2023/03/11 04:48:09;;;;;;;16.17;6.30;;;;;;;-143.84;88.97;43805.88;5091877;28;20455;-73
2023/03/11 04:50:36;;;;;;;12.93;5.60;;;;;;;-143.84;88.93;43815.41;5091629;28;20443;-73
2023/03/11 04:53:03;;;;;;;23.67;6.23;;;;;;;-143.84;88.68;43847.75;5091668;28;20455;-73
2023/03/11 04:55:32;;;;;;;20.40;6.67;;;;;;;-143.84;89.16;43828.72;5091871;28;20447;-73
2023/03/11 04:57:59;;;;;;;12.77;5.73;;;;;;;-143.84;89.47;43807.78;5092250;28;20481;-73
2023/03/11 05:00:26;;;;;;;27.17;5.70;;;;;;;-143.84;89.41;43771.63;5092155;28;20432;-73
2023/03/11 05:02:54;;;;;;;9.10;5.20;;;;;;;-143.84;89.55;43807.78;5091833;28;20482;-73
2023/03/11 05:05:22;;;;;;;23.40;6.83;;;;;;;-143.84;89.68;43792.56;5091788;28;20487;-73
2023/03/11 05:07:49;;;;;;;19.77;6.67;;;;;;;-143.84;89.92;43788.75;5091903;28;20464;-71
2023/03/11 05:10:21;;;;;;;20.00;7.90;;;;;;;-143.84;89.90;43784.94;5092657;28;20472;-72
2023/03/11 05:12:48;;;;;;;11.97;6.87;;;;;;;-143.84;90.31;43773.53;5091709;28;20444;-71
2023/03/11 05:15:15;;;;;;;18.23;6.63;;;;;;;-143.84;89.98;43777.31;5090864;28;20492;-71
2023/03/11 05:17:42;;;;;;;16.00;7.13;;;;;;;-143.84;90.11;43760.19;5091014;28;20439;-73
2023/03/11 05:20:13;;;;;;;18.27;5.83;;;;;;;-143.84;89.95;43817.31;5091483;28;20984;-73
2023/03/11 05:22:40;;;;;;;23.13;8.53;;;;;;;-143.84;90.20;43775.41;5091075;28;20491;-73
2023/03/11 05:25:08;;;;;;;19.17;8.03;;;;;;;-143.84;90.05;43771.63;5091668;28;20442;-73
2023/03/11 05:27:35;;;;;;;17.73;7.40;;;;;;;-143.84;90.39;43767.81;5091908;28;20438;-73
2023/03/11 05:30:02;;;;;;;12.70;7.07;;;;;;;-143.84;89.47;43794.47;5091627;28;20841;-73
2023/03/11 05:32:29;;;;;;;19.77;8.23;;;;;;;-143.84;88.64;43878.22;5091504;28;20432;-73
2023/03/11 05:34:57;;;;;;;23.77;7.97;;;;;;;-143.84;88.25;43859.19;5091620;28;21169;-71
2023/03/11 05:37:26;;;;;;;19.97;7.13;;;;;;;-143.84;88.21;43941.03;5091190;28;20516;-71
2023/03/11 05:39:53;;;;;;;12.47;6.00;;;;;;;-143.84;87.93;43979.09;5091462;28;20443;-71
2023/03/11 05:42:20;;;;;;;16.43;6.10;;;;;;;-143.84;87.85;43965.78;5091020;28;20495;-71
2023/03/11 05:44:47;;;;;;;20.23;5.77;;;;;;;-143.84;87.73;44013.38;5090778;28;20500;-71
2023/03/11 05:47:16;;;;;;;16.00;6.23;;;;;;;-143.84;87.56;44040.00;5090905;28;20441;-71
2023/03/11 05:49:43;;;;;;;11.03;6.20;;;;;;;-143.84;88.21;43910.56;5091217;28;20513;-71
2023/03/11 05:52:10;;;;;;;21.93;6.50;;;;;;;-143.84;89.55;43794.47;5091607;28;20449;-73
2023/03/11 05:54:39;;;;;;;9.13;6.13;;;;;;;-143.84;90.86;43773.53;5091322;28;20516;-73
2023/03/11 05:57:06;;;;;;;21.43;5.87;;;;;;;-143.84;91.81;43821.09;5091120;28;20485;-73
2023/03/11 05:59:34;;;;;;;18.67;5.70;;;;;;;-143.84;92.33;43821.09;5091308;28;20440;-73
2023/03/11 06:02:01;;;;;;;20.47;6.10;;;;;;;-143.84;92.48;43840.13;5090697;28;20439;-73
2023/03/11 06:04:28;;;;;;;24.77;6.97;;;;;;;-143.84;92.53;43836.34;5090521;28;20853;-73
2023/03/11 06:06:55;;;;;;;20.07;6.60;;;;;;;-143.84;92.43;43834.44;5090961;28;20437;-73
2023/03/11 06:09:22;;;;;;;34.40;11.77;;;;;;;-143.84;91.86;43836.34;5090577;28;20436;-73
2023/03/11 06:11:51;;;;;;;26.20;9.50;;;;;;;-143.84;91.85;43824.91;5090259;28;20440;-73
2023/03/11 06:14:18;;;;;;;24.87;7.67;;;;;;;-143.84;91.70;43819.19;5090192;28;20435;-73
2023/03/11 06:16:45;;;;;;;38.47;13.77;;;;;;;-143.84;91.60;43828.72;5090828;28;20428;-72
2023/03/11 06:19:13;;;;;;;33.80;10.77;;;;;;;-143.84;91.75;43811.59;5090554;28;20450;-72
2023/03/11 06:21:40;;;;;;;28.23;9.07;;;;;;;-143.84;91.60;43823.00;5090378;28;20451;-72
2023/03/11 06:24:07;;;;;;;40.43;8.40;;;;;;;-143.84;91.58;43819.19;5090573;28;20548;-73
2023/03/11 06:26:35;;;;;;;21.80;7.37;;;;;;;-143.84;91.16;43784.94;5090500;28;20437;-75
2023/03/11 06:29:03;;;;;;;23.27;7.30;;;;;;;-143.84;90.61;43752.59;5090499;28;20470;-70
2023/03/11 06:31:32;;;;;;;23.10;6.60;;;;;;;-143.84;90.24;43788.75;5090839;28;20516;-70
2023/03/11 06:33:59;;;;;;;22.73;8.53;;;;;;;-143.84;90.04;43783.03;5090921;28;20432;-71
2023/03/11 06:36:26;;;;;;;19.67;7.37;;;;;;;-143.84;89.34;43781.13;5090459;28;21096;-71
2023/03/11 06:38:54;;;;;;;16.20;6.13;;;;;;;-143.84;89.65;43769.72;5089681;28;20439;-71
2023/03/11 06:41:22;;;;;;;16.70;6.83;;;;;;;-143.84;89.85;43777.31;5090020;28;20474;-71
2023/03/11 06:43:49;;;;;;;27.57;8.87;;;;;;;-143.84;90.57;43779.22;5089713;28;21322;-71
2023/03/11 06:46:20;;;;;;;28.37;8.47;;;;;;;-143.84;89.07;43843.94;5090174;28;20502;-71
2023/03/11 06:48:50;;;;;;;14.80;5.80;;;;;;;-143.84;87.07;44100.94;5090535;28;20439;-70
2023/03/11 06:51:18;;;;;;;13.00;6.17;;;;;;;-143.84;86.00;44399.81;5090130;28;20447;-70
2023/03/11 06:53:48;;;;;;;14.40;6.17;;;;;;;-143.84;85.52;44506.44;5090651;28;20443;-71
2023/03/11 06:56:15;;;;;;;9.30;5.60;;;;;;;-143.84;85.42;44540.69;5090892;28;20430;-71
2023/03/11 06:58:47;;;;;;;17.00;5.30;;;;;;;-143.84;84.81;44647.31;5090840;28;20433;-70
2023/03/11 07:01:29;;;;;;;27.03;6.70;;;;;;;-143.84;84.98;44594.00;5089149;28;20443;-71
2023/03/11 07:04:01;;;;;;;24.33;7.70;;;;;;;-143.84;84.50;44668.25;5089277;28;20501;-71
2023/03/11 07:06:31;;;;;;;24.37;7.63;;;;;;;-143.84;84.44;44710.16;5088666;28;20541;-71
2023/03/11 07:09:02;;;;;;;25.70;5.90;;;;;;;-143.84;84.28;44748.22;5089188;28;20455;-71
2023/03/11 07:11:36;;;;;;;24.93;5.60;;;;;;;-143.84;84.20;44765.34;5088007;28;20480;-70
2023/03/11 07:14:04;;;;;;;19.37;5.73;;;;;;;-143.84;83.08;44889.13;5088181;28;20893;-70
2023/03/11 07:16:32;;;;;;;20.77;6.10;;;;;;;-143.84;83.21;44864.38;5088772;28;20449;-70
2023/03/11 07:19:02;;;;;;;16.97;5.23;;;;;;;-143.84;83.66;44845.31;5088476;28;20448;-71
2023/03/11 07:21:31;;;;;;;15.40;5.33;;;;;;;-143.84;83.84;44820.56;5089584;28;20506;-70
2023/03/11 07:24:00;;;;;;;29.70;6.70;;;;;;;-143.84;84.54;44729.19;5090232;28;20487;-71
2023/03/11 07:26:28;;;;;;;26.43;6.27;;;;;;;-143.84;84.85;44666.34;5089932;28;20497;-70
2023/03/11 07:28:57;;;;;;;24.60;6.93;;;;;;;-143.84;85.98;44415.03;5088374;28;20984;-71
2023/03/11 07:31:28;;;;;;;28.53;6.27;;;;;;;-143.84;86.03;44375.06;5089173;28;20948;-71
2023/03/11 07:34:04;;;;;;;23.20;5.73;;;;;;;-143.84;85.83;44382.69;5087992;28;20439;-71
2023/03/11 07:36:37;;;;;;;18.13;6.17;;;;;;;-143.84;84.83;44597.81;5088673;28;21101;-71
2023/03/11 07:39:09;;;;;;;12.33;5.70;;;;;;;-143.84;83.75;44733.00;5088557;28;20513;-71
2023/03/11 07:41:42;;;;;;;15.20;5.17;;;;;;;-143.84;83.54;44793.91;5089395;28;20447;-71
2023/03/11 07:44:16;;;;;;;17.70;5.30;;;;;;;-143.84;81.99;44906.25;5089758;28;21030;-71
2023/03/11 07:46:44;;;;;;;13.43;4.63;;;;;;;-143.84;80.02;44995.75;5091185;28;20933;-73
2023/03/11 07:49:13;;;;;;;17.60;4.97;;;;;;;-143.84;78.94;45018.59;5091958;28;20443;-73
2023/03/11 07:51:42;;;;;;;36.87;5.67;;;;;;;-143.84;77.66;45010.97;5091857;28;20557;-73
2023/03/11 07:54:11;;;;;;;20.37;4.47;;;;;;;-143.84;76.94;45089.06;5093640;28;20448;-73
2023/03/11 07:56:39;;;;;;;13.97;5.50;;;;;;;-143.84;76.07;45075.72;5095842;28;20440;-73
2023/03/11 07:59:06;;;;;;;10.37;3.67;;;;;;;-143.84;76.96;45062.41;5095555;28;20451;-73
2023/03/11 08:01:39;;;;;;;11.30;4.80;;;;;;;-143.84;78.34;45070.00;5095486;28;20436;-73
2023/03/11 08:04:08;;;;;;;16.30;4.73;;;;;;;-143.84;78.61;45073.81;5095901;28;20578;-73
2023/03/11 08:06:37;;;;;;;21.77;4.83;;;;;;;-143.84;79.01;45045.25;5095701;28;20965;-73
2023/03/11 08:09:06;;;;;;;10.00;5.23;;;;;;;-143.84;79.25;45047.16;5094393;28;20440;-73
2023/03/11 08:11:34;;;;;;;11.90;4.63;;;;;;;-143.84;79.56;45007.19;5095449;28;20905;-73
2023/03/11 08:14:01;;;;;;;13.23;4.77;;;;;;;-143.84;78.52;45045.25;5095832;28;20955;-74
2023/03/11 08:16:29;;;;;;;11.77;4.53;;;;;;;-143.84;78.54;45071.91;5095566;28;20435;-74
2023/03/11 08:18:56;;;;;;;20.27;4.83;;;;;;;-143.84;78.98;45052.88;5095571;28;20467;-74
2023/03/11 08:21:27;;;;;;;19.57;6.13;;;;;;;-143.84;79.34;45039.53;5095420;28;20442;-74
2023/03/11 08:23:58;;;;;;;16.73;4.73;;;;;;;-143.84;79.26;45083.34;5095141;28;21013;-74
2023/03/11 08:26:26;;;;;;;17.03;5.87;;;;;;;-143.84;79.75;45035.75;5095588;28;20428;-74
2023/03/11 08:28:54;;;;;;;29.67;5.57;;;;;;;-143.84;80.33;45016.69;5095111;28;20443;-74
2023/03/11 08:31:24;;;;;;;26.10;5.10;;;;;;;-143.84;79.77;45012.88;5095040;28;20465;-74
2023/03/11 08:33:53;;;;;;;12.83;4.63;;;;;;;-143.84;79.85;45005.28;5094796;28;20442;-74
2023/03/11 08:36:21;;;;;;;17.30;5.10;;;;;;;-143.84;78.07;45050.97;5093753;28;21115;-76
2023/03/11 08:38:48;;;;;;;31.50;6.50;;;;;;;-143.84;77.79;45050.97;5094305;28;20424;-78
2023/03/11 08:41:17;;;;;;;14.10;5.57;;;;;;;-143.84;77.40;45079.53;5094410;28;20436;-78
2023/03/11 08:43:44;;;;;;;15.40;5.33;;;;;;;-143.84;77.90;45071.91;5094196;28;20600;-78
2023/03/11 08:46:15;;;;;;;32.67;6.00;;;;;;;-143.84;78.31;45045.25;5093526;28;20443;-78
2023/03/11 08:48:43;;;;;;;13.10;4.77;;;;;;;-143.84;79.02;45070.00;5093687;28;20436;-78
2023/03/11 08:51:11;;;;;;;26.43;5.23;;;;;;;-143.84;79.52;45041.44;5093041;28;20472;-78
2023/03/11 08:53:38;;;;;;;9.50;4.30;;;;;;;-143.84;79.78;45049.06;5092312;28;20439;-78
2023/03/11 08:56:06;;;;;;;16.50;5.20;;;;;;;-143.84;79.88;45050.97;5092251;28;20501;-78
2023/03/11 08:58:34;;;;;;;17.43;5.60;;;;;;;-143.84;81.24;44988.13;5092184;28;20442;-78
2023/03/11 09:01:02;;;;;;;15.63;5.67;;;;;;;-143.84;82.95;44929.09;5091585;28;20512;-78
2023/03/11 09:03:31;;;;;;;14.17;5.67;;;;;;;-143.84;83.14;44879.59;5089263;28;20488;-77
2023/03/11 09:06:00;;;;;;;24.13;6.03;;;;;;;-143.84;84.59;44776.78;5090596;28;20815;-78
2023/03/11 09:08:27;;;;;;;14.50;6.60;;;;;;;-143.84;85.05;44755.84;5092455;28;20447;-76
2023/03/11 09:10:55;;;;;;;22.00;7.13;;;;;;;-143.84;85.07;44666.34;5091166;28;20446;-79
2023/03/11 09:13:22;;;;;;;26.20;8.10;;;;;;;-143.84;85.46;44630.19;5092928;28;20455;-78
2023/03/11 09:15:52;;;;;;;38.03;13.40;;;;;;;-143.84;85.46;44588.28;5092285;28;20505;-79
2023/03/11 09:18:19;;;;;;;25.60;7.77;;;;;;;-143.84;85.96;44458.81;5092181;28;20577;-78
2023/03/11 09:20:47;;;;;;;44.90;8.93;;;;;;;-143.84;88.90;43861.06;5092888;28;20459;-78
2023/03/11 09:23:16;;;;;;;32.40;7.47;;;;;;;-143.84;90.99;43784.94;5092624;28;20853;-78
2023/03/11 09:25:43;;;;;;;33.83;6.30;;;;;;;-143.84;92.63;43851.56;5092547;28;20440;-78
2023/03/11 09:28:10;;;;;;;29.53;7.13;;;;;;;-143.84;93.11;43853.47;5092020;28;20435;-78
2023/03/11 09:30:37;;;;;;;27.20;5.90;;;;;;;-143.84;93.08;43862.97;5091674;28;21159;-78
2023/03/11 09:33:06;;;;;;;26.83;8.97;;;;;;;-143.84;92.94;43857.28;5092677;28;20443;-78
2023/03/11 09:35:34;;;;;;;10.67;6.10;;;;;;;-143.84;92.98;43847.75;5091991;28;20436;-77
2023/03/11 09:38:01;;;;;;;13.73;5.27;;;;;;;-143.84;92.09;43843.94;5091705;28;20814;-77
2023/03/11 09:40:46;;;;;;;9.73;3.87;;;;;;;-143.84;91.33;43807.78;5091956;28;20966;-77
2023/03/11 09:43:26;;;;;;;4.50;4.10;;;;;;;-143.84;90.50;43769.72;5090687;28;20437;-76
2023/03/11 09:46:02;;;;;;;6.63;5.13;;;;;;;-143.84;91.06;43805.88;5090373;28;20869;-78
2023/03/11 09:48:35;;;;;;;7.10;4.50;;;;;;;-143.84;90.63;43790.66;5091052;28;20439;-77
2023/03/11 09:51:10;;;;;;;8.47;3.47;;;;;;;-143.84;90.20;43779.22;5090894;28;20500;-77
2023/03/11 09:53:41;;;;;;;3.77;2.50;;;;;;;-143.84;90.41;43758.28;5090074;28;20447;-77
2023/03/11 09:56:10;;;;;;;4.70;2.60;;;;;;;-143.84;90.32;43788.75;5091220;28;20444;-78
2023/03/11 09:58:42;;;;;;;2.57;2.40;;;;;;;-143.84;90.15;43760.19;5091576;28;21003;-77
2023/03/11 10:01:21;;;;;;;3.23;3.03;;;;;;;-143.84;89.79;43792.56;5091630;28;20439;-77
2023/03/11 10:03:53;;;;;;;3.93;2.70;;;;;;;-143.84;90.01;43777.31;5091746;28;20481;-77
2023/03/11 10:06:22;;;;;;;6.80;2.60;;;;;;;-143.84;89.96;43798.25;5091569;28;20451;-77
2023/03/11 10:08:57;;;;;;;6.80;1.70;;;;;;;-143.84;90.16;43783.03;5091319;28;20470;-77
2023/03/11 10:11:44;;;;;;;1.90;1.80;;;;;;;-143.84;90.30;43786.84;5091627;28;20457;-78
2023/03/11 10:14:20;;;;;;;2.47;2.30;;;;;;;-143.84;91.23;43773.53;5091228;28;20951;-78
2023/03/11 10:16:56;;;;;;;4.90;3.47;;;;;;;-143.84;91.23;43800.16;5091041;28;20971;-78
2023/03/11 10:19:36;;;;;;;2.93;2.50;;;;;;;-143.84;90.89;43775.41;5090665;28;20436;-78
2023/03/11 10:22:12;;;;;;;4.23;3.93;;;;;;;-143.84;90.47;43765.91;5090757;28;20500;-78
2023/03/11 10:24:56;;;;;;;9.20;6.33;;;;;;;-143.84;90.86;43773.53;5090752;28;20483;-78
2023/03/11 10:27:29;;;;;;;2.77;2.57;;;;;;;-143.84;89.78;43794.47;5091249;28;20442;-78
2023/03/11 10:30:03;;;;;;;31.23;26.40;;;;;;;-143.84;89.96;43786.84;5091206;28;20539;-78
2023/03/11 10:32:38;;;;;;;26.50;22.87;;;;;;;-143.84;89.57;43790.66;5091343;28;20521;-78
2023/03/11 10:35:16;;;;;;;9.43;8.53;;;;;;;-143.84;89.75;43765.91;5091152;28;20522;-78
2023/03/11 10:37:51;;;;;;;9.47;6.80;;;;;;;-143.84;89.21;43794.47;5091120;28;20492;-78
2023/03/11 10:40:24;;;;;;;4.87;4.47;;;;;;;-143.84;89.45;43754.47;5090931;28;20441;-78
2023/03/11 10:42:54;;;;;;;4.67;4.37;;;;;;;-143.84;89.12;43783.03;5090933;28;20441;-78
2023/03/11 10:45:23;;;;;;;5.50;5.00;;;;;;;-143.84;89.01;43813.50;5090848;28;20480;-78
2023/03/11 10:47:50;;;;;;;7.50;5.37;;;;;;;-143.84;89.58;43796.34;5090039;28;20967;-78
2023/03/11 10:50:20;;;;;;;9.90;5.40;;;;;;;-143.84;88.50;43813.50;5090434;28;20490;-78
2023/03/11 10:53:06;;;;;;;9.60;5.37;;;;;;;-143.84;87.85;43937.22;5089812;28;20433;-79
2023/03/11 10:55:33;;;;;;;8.70;7.40;;;;;;;-143.84;87.82;43868.69;5091074;28;20447;-79
2023/03/11 10:58:12;;;;;;;5.43;5.03;;;;;;;-143.84;86.85;44114.25;5089633;28;20466;-78
2023/03/11 11:00:39;;;;;;;5.00;4.60;;;;;;;-143.84;86.82;44127.56;5090696;28;20940;-79
2023/03/11 11:03:16;;;;;;;18.67;14.27;;;;;;;-143.84;87.48;43984.81;5091210;28;20583;-79
2023/03/11 11:05:56;;;;;;;5.47;4.83;;;;;;;-143.84;87.39;44000.03;5090759;28;20714;-79
2023/03/11 11:08:23;;;;;;;5.47;5.03;;;;;;;-143.84;88.00;43922.00;5090754;28;20443;-79
2023/03/11 11:10:52;;;;;;;4.50;4.20;;;;;;;-143.84;87.37;44001.94;5091017;28;20884;-79
2023/03/11 11:13:21;;;;;;;4.90;4.23;;;;;;;-143.84;86.90;44078.09;5090725;28;20506;-79
2023/03/11 11:15:54;;;;;;;5.57;4.30;;;;;;;-143.84;85.95;44317.94;5089830;28;20546;-79
2023/03/11 11:18:25;;;;;;;4.23;3.10;;;;;;;-143.84;85.32;44512.13;5089962;28;20592;-79